sensor_id;sensor_type;location;lat;lon;timestamp;pressure;altitude;pressure_sealevel;temperature;humidity
11912;BME280;6016;41.928;25.556;2022-08-19T00:01:36;98536.22;;;29.33;42.42
11912;BME280;6016;41.928;25.556;2022-08-19T00:04:05;98548.44;;;29.46;42.53
11912;BME280;6016;41.928;25.556;2022-08-19T00:06:34;98558.75;;;29.44;42.82
11912;BME280;6016;41.928;25.556;2022-08-19T00:09:02;98553.06;;;29.45;42.73
11912;BME280;6016;41.928;25.556;2022-08-19T00:11:31;98553.31;;;29.49;42.73
11912;BME280;6016;41.928;25.556;2022-08-19T00:14:00;98547.59;;;29.51;42.67
11912;BME280;6016;41.928;25.556;2022-08-19T00:16:27;98553.56;;;29.53;42.78
11912;BME280;6016;41.928;25.556;2022-08-19T00:18:54;98530.22;;;29.41;43.07
11912;BME280;6016;41.928;25.556;2022-08-19T00:21:22;98554.06;;;29.60;42.86
11912;BME280;6016;41.928;25.556;2022-08-19T00:23:49;98470.88;;;29.09;42.87
11912;BME280;6016;41.928;25.556;2022-08-19T00:26:16;98530.50;;;29.40;43.21
11912;BME280;6016;41.928;25.556;2022-08-19T00:28:44;98557.03;;;29.64;43.08
11912;BME280;6016;41.928;25.556;2022-08-19T00:31:11;98554.31;;;29.64;43.28
11912;BME280;6016;41.928;25.556;2022-08-19T00:33:38;98530.22;;;29.46;42.97
11912;BME280;6016;41.928;25.556;2022-08-19T00:36:07;98547.22;;;29.68;42.99
11912;BME280;6016;41.928;25.556;2022-08-19T00:38:35;98548.06;;;29.68;43.33
11912;BME280;6016;41.928;25.556;2022-08-19T00:41:03;98548.06;;;29.68;43.35
11912;BME280;6016;41.928;25.556;2022-08-19T00:43:30;98551.88;;;29.67;43.28
11912;BME280;6016;41.928;25.556;2022-08-19T00:45:58;98548.06;;;29.63;43.60
11912;BME280;6016;41.928;25.556;2022-08-19T00:48:26;98549.47;;;29.60;43.92
11912;BME280;6016;41.928;25.556;2022-08-19T00:50:54;98534.00;;;29.51;44.43
11912;BME280;6016;41.928;25.556;2022-08-19T00:53:24;98548.09;;;29.58;44.15
11912;BME280;6016;41.928;25.556;2022-08-19T00:55:55;98484.69;;;29.12;44.26
11912;BME280;6016;41.928;25.556;2022-08-19T00:58:27;98533.22;;;29.40;44.56
11912;BME280;6016;41.928;25.556;2022-08-19T01:00:55;98537.56;;;29.41;44.77
11912;BME280;6016;41.928;25.556;2022-08-19T01:03:23;98551.16;;;29.46;44.46
11912;BME280;6016;41.928;25.556;2022-08-19T01:05:52;98544.13;;;29.34;44.42
11912;BME280;6016;41.928;25.556;2022-08-19T01:08:21;98554.41;;;29.48;44.58
11912;BME280;6016;41.928;25.556;2022-08-19T01:10:50;98547.88;;;29.44;44.39
11912;BME280;6016;41.928;25.556;2022-08-19T01:13:20;98548.97;;;29.48;44.43
11912;BME280;6016;41.928;25.556;2022-08-19T01:15:51;98534.59;;;29.32;43.83
11912;BME280;6016;41.928;25.556;2022-08-19T01:18:19;98544.59;;;29.42;44.20
11912;BME280;6016;41.928;25.556;2022-08-19T01:20:48;98532.44;;;29.24;44.32
11912;BME280;6016;41.928;25.556;2022-08-19T01:23:17;98545.78;;;29.25;44.46
11912;BME280;6016;41.928;25.556;2022-08-19T01:25:46;98554.69;;;29.36;44.15
11912;BME280;6016;41.928;25.556;2022-08-19T01:28:19;98544.34;;;29.38;44.07
11912;BME280;6016;41.928;25.556;2022-08-19T01:30:47;98548.19;;;29.32;44.41
11912;BME280;6016;41.928;25.556;2022-08-19T01:33:15;98546.81;;;29.29;44.31
11912;BME280;6016;41.928;25.556;2022-08-19T01:35:42;98542.00;;;29.21;44.60
11912;BME280;6016;41.928;25.556;2022-08-19T01:38:18;98551.19;;;29.25;44.45
11912;BME280;6016;41.928;25.556;2022-08-19T01:40:47;98539.56;;;29.14;44.86
11912;BME280;6016;41.928;25.556;2022-08-19T01:43:13;98552.03;;;29.20;44.82
11912;BME280;6016;41.928;25.556;2022-08-19T01:45:40;98552.84;;;29.21;44.58
11912;BME280;6016;41.928;25.556;2022-08-19T01:48:08;98556.94;;;29.13;44.82
11912;BME280;6016;41.928;25.556;2022-08-19T01:50:35;98552.88;;;29.05;45.27
11912;BME280;6016;41.928;25.556;2022-08-19T01:53:04;98530.66;;;28.88;45.25
11912;BME280;6016;41.928;25.556;2022-08-19T01:55:31;98549.63;;;29.03;45.13
11912;BME280;6016;41.928;25.556;2022-08-19T01:58:02;98541.25;;;28.89;45.10
11912;BME280;6016;41.928;25.556;2022-08-19T02:00:31;98544.22;;;28.98;45.18
11912;BME280;6016;41.928;25.556;2022-08-19T02:02:58;98521.97;;;28.91;45.15
11912;BME280;6016;41.928;25.556;2022-08-19T02:05:26;98555.34;;;29.02;44.97
11912;BME280;6016;41.928;25.556;2022-08-19T02:07:54;98549.09;;;29.01;45.01
11912;BME280;6016;41.928;25.556;2022-08-19T02:10:22;98545.84;;;28.99;45.05
11912;BME280;6016;41.928;25.556;2022-08-19T02:12:49;98550.47;;;29.04;44.91
11912;BME280;6016;41.928;25.556;2022-08-19T02:15:20;98536.38;;;28.91;45.23
11912;BME280;6016;41.928;25.556;2022-08-19T02:17:47;98564.31;;;29.02;45.26
11912;BME280;6016;41.928;25.556;2022-08-19T02:20:14;98568.41;;;28.95;45.22
11912;BME280;6016;41.928;25.556;2022-08-19T02:22:42;98409.19;;;27.97;45.11
11912;BME280;6016;41.928;25.556;2022-08-19T02:25:09;98542.63;;;28.82;45.40
11912;BME280;6016;41.928;25.556;2022-08-19T02:27:36;98557.81;;;28.88;44.85
11912;BME280;6016;41.928;25.556;2022-08-19T02:30:06;98576.53;;;28.95;44.87
11912;BME280;6016;41.928;25.556;2022-08-19T02:32:34;98571.13;;;28.89;45.81
11912;BME280;6016;41.928;25.556;2022-08-19T02:35:02;98574.38;;;28.86;45.47
11912;BME280;6016;41.928;25.556;2022-08-19T02:37:29;98577.38;;;28.85;45.92
11912;BME280;6016;41.928;25.556;2022-08-19T02:40:13;98580.34;;;28.83;45.65
11912;BME280;6016;41.928;25.556;2022-08-19T02:42:40;98578.19;;;28.85;45.40
11912;BME280;6016;41.928;25.556;2022-08-19T02:45:08;98586.63;;;28.84;46.19
11912;BME280;6016;41.928;25.556;2022-08-19T02:47:37;98578.16;;;28.70;45.81
11912;BME280;6016;41.928;25.556;2022-08-19T02:50:05;98594.44;;;28.75;46.37
11912;BME280;6016;41.928;25.556;2022-08-19T02:52:33;98602.63;;;28.64;46.51
11912;BME280;6016;41.928;25.556;2022-08-19T02:55:01;98532.56;;;28.15;46.87
11912;BME280;6016;41.928;25.556;2022-08-19T02:57:29;98597.72;;;28.61;46.71
11912;BME280;6016;41.928;25.556;2022-08-19T02:59:57;98593.09;;;28.62;46.32
11912;BME280;6016;41.928;25.556;2022-08-19T03:02:24;98609.91;;;28.69;46.81
11912;BME280;6016;41.928;25.556;2022-08-19T03:04:52;98608.03;;;28.64;46.44
11912;BME280;6016;41.928;25.556;2022-08-19T03:07:19;98607.50;;;28.57;46.94
11912;BME280;6016;41.928;25.556;2022-08-19T03:09:46;98610.19;;;28.62;46.42
11912;BME280;6016;41.928;25.556;2022-08-19T03:12:13;98611.03;;;28.63;46.44
11912;BME280;6016;41.928;25.556;2022-08-19T03:14:39;98605.84;;;28.61;46.28
11912;BME280;6016;41.928;25.556;2022-08-19T03:17:06;98606.69;;;28.62;46.50
11912;BME280;6016;41.928;25.556;2022-08-19T03:19:33;98610.75;;;28.54;46.85
11912;BME280;6016;41.928;25.556;2022-08-19T03:22:02;98586.34;;;28.39;46.91
11912;BME280;6016;41.928;25.556;2022-08-19T03:24:30;98583.06;;;28.42;46.62
11912;BME280;6016;41.928;25.556;2022-08-19T03:26:57;98614.28;;;28.60;46.70
11912;BME280;6016;41.928;25.556;2022-08-19T03:29:26;98624.31;;;28.54;46.36
11912;BME280;6016;41.928;25.556;2022-08-19T03:31:53;98621.59;;;28.44;47.13
11912;BME280;6016;41.928;25.556;2022-08-19T03:34:22;98619.44;;;28.41;46.68
11912;BME280;6016;41.928;25.556;2022-08-19T03:36:51;98628.38;;;28.46;46.57
11912;BME280;6016;41.928;25.556;2022-08-19T03:39:20;98634.06;;;28.45;46.90
11912;BME280;6016;41.928;25.556;2022-08-19T03:41:49;98621.31;;;28.40;46.46
11912;BME280;6016;41.928;25.556;2022-08-19T03:44:18;98622.13;;;28.35;46.72
11912;BME280;6016;41.928;25.556;2022-08-19T03:46:46;98444.81;;;27.21;47.14
11912;BME280;6016;41.928;25.556;2022-08-19T03:49:14;98630.53;;;28.34;46.44
11912;BME280;6016;41.928;25.556;2022-08-19T03:51:41;98637.63;;;28.45;46.90
11912;BME280;6016;41.928;25.556;2022-08-19T03:54:14;98630.53;;;28.39;46.75
11912;BME280;6016;41.928;25.556;2022-08-19T03:56:44;98611.25;;;28.25;46.96
11912;BME280;6016;41.928;25.556;2022-08-19T03:59:14;98636.50;;;28.41;47.02
11912;BME280;6016;41.928;25.556;2022-08-19T04:01:41;98636.22;;;28.32;47.15
11912;BME280;6016;41.928;25.556;2022-08-19T04:04:09;98643.03;;;28.40;47.06
11912;BME280;6016;41.928;25.556;2022-08-19T04:06:37;98638.94;;;28.48;46.82
11912;BME280;6016;41.928;25.556;2022-08-19T04:09:09;98646.28;;;28.47;47.19
11912;BME280;6016;41.928;25.556;2022-08-19T04:11:41;98648.19;;;28.47;47.42
11912;BME280;6016;41.928;25.556;2022-08-19T04:14:12;98656.34;;;28.52;47.05
11912;BME280;6016;41.928;25.556;2022-08-19T04:16:40;98654.16;;;28.54;47.11
11912;BME280;6016;41.928;25.556;2022-08-19T04:19:07;98661.47;;;28.54;47.59
11912;BME280;6016;41.928;25.556;2022-08-19T04:21:34;98654.97;;;28.55;47.82
11912;BME280;6016;41.928;25.556;2022-08-19T04:24:02;98659.84;;;28.53;47.86
11912;BME280;6016;41.928;25.556;2022-08-19T04:26:30;98654.72;;;28.56;47.89
11912;BME280;6016;41.928;25.556;2022-08-19T04:28:58;98655.50;;;28.57;48.14
11912;BME280;6016;41.928;25.556;2022-08-19T04:31:28;98652.00;;;28.56;47.73
11912;BME280;6016;41.928;25.556;2022-08-19T04:33:57;98652.25;;;28.55;47.61
11912;BME280;6016;41.928;25.556;2022-08-19T04:36:27;98609.34;;;28.31;47.99
11912;BME280;6016;41.928;25.556;2022-08-19T04:38:55;98654.97;;;28.55;48.06
11912;BME280;6016;41.928;25.556;2022-08-19T04:41:23;98652.25;;;28.55;48.11
11912;BME280;6016;41.928;25.556;2022-08-19T04:44:07;98649.28;;;28.51;48.36
11912;BME280;6016;41.928;25.556;2022-08-19T04:46:35;98662.84;;;28.56;47.93
11912;BME280;6016;41.928;25.556;2022-08-19T04:49:04;98658.78;;;28.54;48.18
11912;BME280;6016;41.928;25.556;2022-08-19T04:51:32;98651.19;;;28.50;48.81
11912;BME280;6016;41.928;25.556;2022-08-19T04:54:00;98657.69;;;28.55;48.53
11912;BME280;6016;41.928;25.556;2022-08-19T04:56:28;98610.72;;;28.28;48.30
11912;BME280;6016;41.928;25.556;2022-08-19T04:58:56;98657.44;;;28.56;48.50
11912;BME280;6016;41.928;25.556;2022-08-19T05:01:26;98650.09;;;28.52;48.05
11912;BME280;6016;41.928;25.556;2022-08-19T05:03:56;98663.91;;;28.50;47.98
11912;BME280;6016;41.928;25.556;2022-08-19T05:06:24;98664.50;;;28.52;48.87
11912;BME280;6016;41.928;25.556;2022-08-19T05:08:51;98661.50;;;28.48;49.23
11912;BME280;6016;41.928;25.556;2022-08-19T05:11:20;98660.66;;;28.48;48.98
11912;BME280;6016;41.928;25.556;2022-08-19T05:13:48;98658.78;;;28.48;49.18
11912;BME280;6016;41.928;25.556;2022-08-19T05:16:17;98661.75;;;28.47;49.41
11912;BME280;6016;41.928;25.556;2022-08-19T05:18:45;98646.03;;;28.39;49.27
11912;BME280;6016;41.928;25.556;2022-08-19T05:21:31;98614.50;;;28.22;49.27
11912;BME280;6016;41.928;25.556;2022-08-19T05:24:16;98664.75;;;28.56;49.66
11912;BME280;6016;41.928;25.556;2022-08-19T05:26:45;98660.97;;;28.62;49.76
11912;BME280;6016;41.928;25.556;2022-08-19T05:29:13;98619.44;;;28.41;49.97
11912;BME280;6016;41.928;25.556;2022-08-19T05:31:40;98526.28;;;27.83;49.20
11912;BME280;6016;41.928;25.556;2022-08-19T05:34:08;98662.56;;;28.68;49.06
11912;BME280;6016;41.928;25.556;2022-08-19T05:36:38;98650.91;;;28.68;50.52
11912;BME280;6016;41.928;25.556;2022-08-19T05:39:06;98650.09;;;28.77;49.28
11912;BME280;6016;41.928;25.556;2022-08-19T05:41:33;98619.44;;;28.56;50.15
11912;BME280;6016;41.928;25.556;2022-08-19T05:44:02;98654.16;;;28.75;50.16
11912;BME280;6016;41.928;25.556;2022-08-19T05:46:31;98636.25;;;28.69;49.39
11912;BME280;6016;41.928;25.556;2022-08-19T05:48:58;98640.06;;;28.57;49.73
11912;BME280;6016;41.928;25.556;2022-08-19T05:51:25;98658.00;;;28.84;49.92
11912;BME280;6016;41.928;25.556;2022-08-19T05:53:53;98663.16;;;28.91;49.79
11912;BME280;6016;41.928;25.556;2022-08-19T05:56:20;98651.47;;;28.80;49.79
11912;BME280;6016;41.928;25.556;2022-08-19T05:58:47;98667.50;;;29.02;50.14
11912;BME280;6016;41.928;25.556;2022-08-19T06:01:16;98671.03;;;29.03;50.50
11912;BME280;6016;41.928;25.556;2022-08-19T06:03:45;98670.50;;;29.06;50.13
11912;BME280;6016;41.928;25.556;2022-08-19T06:06:14;98676.19;;;29.10;49.77
11912;BME280;6016;41.928;25.556;2022-08-19T06:08:42;98684.59;;;29.13;49.99
11912;BME280;6016;41.928;25.556;2022-08-19T06:11:17;98681.06;;;29.18;50.03
11912;BME280;6016;41.928;25.556;2022-08-19T06:13:45;98680.81;;;29.19;49.22
11912;BME280;6016;41.928;25.556;2022-08-19T06:16:16;98680.25;;;29.23;49.65
11912;BME280;6016;41.928;25.556;2022-08-19T06:18:48;98662.88;;;29.08;50.08
11912;BME280;6016;41.928;25.556;2022-08-19T06:21:17;98688.41;;;29.28;49.30
11912;BME280;6016;41.928;25.556;2022-08-19T06:23:44;98692.72;;;29.34;49.32
11912;BME280;6016;41.928;25.556;2022-08-19T06:26:11;98697.06;;;29.35;49.33
11912;BME280;6016;41.928;25.556;2022-08-19T06:28:41;98685.13;;;29.26;49.26
11912;BME280;6016;41.928;25.556;2022-08-19T06:31:12;98682.41;;;29.26;49.82
11912;BME280;6016;41.928;25.556;2022-08-19T06:33:43;98677.53;;;29.23;50.36
11912;BME280;6016;41.928;25.556;2022-08-19T06:36:17;98690.56;;;29.41;49.83
11912;BME280;6016;41.928;25.556;2022-08-19T06:38:44;98694.91;;;29.42;49.46
11912;BME280;6016;41.928;25.556;2022-08-19T06:41:11;98699.53;;;29.47;49.83
11912;BME280;6016;41.928;25.556;2022-08-19T06:43:38;98693.81;;;29.48;49.95
11912;BME280;6016;41.928;25.556;2022-08-19T06:46:11;98699.78;;;29.51;48.94
11912;BME280;6016;41.928;25.556;2022-08-19T06:48:40;98693.28;;;29.52;49.38
11912;BME280;6016;41.928;25.556;2022-08-19T06:51:07;98666.38;;;29.34;49.64
11912;BME280;6016;41.928;25.556;2022-08-19T06:57:24;98714.75;;;29.48;48.87
11912;BME280;6016;41.928;25.556;2022-08-19T06:59:52;98702.75;;;29.65;48.56
11912;BME280;6016;41.928;25.556;2022-08-19T07:02:21;98699.47;;;29.73;48.84
11912;BME280;6016;41.928;25.556;2022-08-19T07:04:51;98701.38;;;29.78;48.26
11912;BME280;6016;41.928;25.556;2022-08-19T07:07:20;98665.81;;;29.58;49.03
11912;BME280;6016;41.928;25.556;2022-08-19T07:09:49;98696.16;;;29.86;48.02
11912;BME280;6016;41.928;25.556;2022-08-19T07:12:18;98698.59;;;29.93;48.07
11912;BME280;6016;41.928;25.556;2022-08-19T07:14:45;98677.66;;;29.88;47.93
11912;BME280;6016;41.928;25.556;2022-08-19T07:17:31;98671.69;;;29.86;47.65
11912;BME280;6016;41.928;25.556;2022-08-19T07:20:01;98690.38;;;30.09;47.97
11912;BME280;6016;41.928;25.556;2022-08-19T07:22:29;98683.84;;;30.15;48.95
11912;BME280;6016;41.928;25.556;2022-08-19T07:25:02;98674.56;;;30.16;47.13
11912;BME280;6016;41.928;25.556;2022-08-19T07:27:36;98654.19;;;30.03;46.90
11912;BME280;6016;41.928;25.556;2022-08-19T07:30:04;98679.63;;;30.33;46.59
11912;BME280;6016;41.928;25.556;2022-08-19T07:32:32;98677.94;;;30.42;47.22
11912;BME280;6016;41.928;25.556;2022-08-19T07:34:59;98682.53;;;30.47;46.73
11912;BME280;6016;41.928;25.556;2022-08-19T07:37:30;98685.47;;;30.56;46.65
11912;BME280;6016;41.928;25.556;2022-08-19T07:39:56;98678.66;;;30.64;46.60
11912;BME280;6016;41.928;25.556;2022-08-19T07:42:24;98673.69;;;30.71;45.84
11912;BME280;6016;41.928;25.556;2022-08-19T07:44:52;98668.25;;;30.71;45.78
11912;BME280;6016;41.928;25.556;2022-08-19T07:47:18;98681.78;;;30.81;45.91
11912;BME280;6016;41.928;25.556;2022-08-19T07:49:47;98665.44;;;30.81;45.78
11912;BME280;6016;41.928;25.556;2022-08-19T07:52:14;98682.50;;;30.97;45.79
11912;BME280;6016;41.928;25.556;2022-08-19T07:54:42;98673.97;;;31.04;45.41
11912;BME280;6016;41.928;25.556;2022-08-19T07:57:09;98663.13;;;30.99;45.13
11912;BME280;6016;41.928;25.556;2022-08-19T07:59:36;98675.72;;;31.19;45.02
11912;BME280;6016;41.928;25.556;2022-08-19T08:02:05;98658.16;;;31.06;44.22
11912;BME280;6016;41.928;25.556;2022-08-19T08:04:32;98641.50;;;31.08;44.08
11912;BME280;6016;41.928;25.556;2022-08-19T08:07:17;98676.91;;;31.42;44.23
11912;BME280;6016;41.928;25.556;2022-08-19T08:10:03;98647.63;;;31.29;43.82
11912;BME280;6016;41.928;25.556;2022-08-19T08:12:33;98370.22;;;29.34;43.89
11912;BME280;6016;41.928;25.556;2022-08-19T08:15:04;98667.97;;;31.61;43.47
11912;BME280;6016;41.928;25.556;2022-08-19T08:17:33;98669.53;;;31.67;43.13
11912;BME280;6016;41.928;25.556;2022-08-19T08:20:02;98672.19;;;31.72;43.06
11912;BME280;6016;41.928;25.556;2022-08-19T08:22:33;98660.19;;;31.74;44.27
11912;BME280;6016;41.928;25.556;2022-08-19T08:25:21;98664.31;;;31.95;43.00
11912;BME280;6016;41.928;25.556;2022-08-19T08:27:50;98652.16;;;31.88;44.19
11912;BME280;6016;41.928;25.556;2022-08-19T08:30:19;98664.97;;;32.06;43.00
11912;BME280;6016;41.928;25.556;2022-08-19T08:32:47;98653.19;;;32.11;42.08
11912;BME280;6016;41.928;25.556;2022-08-19T08:35:18;98651.56;;;32.10;42.68
11912;BME280;6016;41.928;25.556;2022-08-19T08:37:48;98536.81;;;31.38;42.00
11912;BME280;6016;41.928;25.556;2022-08-19T08:40:22;98658.50;;;32.21;41.74
11912;BME280;6016;41.928;25.556;2022-08-19T08:42:55;98647.97;;;32.14;41.99
11912;BME280;6016;41.928;25.556;2022-08-19T08:45:26;98659.75;;;32.29;41.46
11912;BME280;6016;41.928;25.556;2022-08-19T08:47:57;98645.47;;;32.18;41.99
11912;BME280;6016;41.928;25.556;2022-08-19T08:50:32;98625.91;;;32.11;41.68
11912;BME280;6016;41.928;25.556;2022-08-19T08:53:04;98650.13;;;32.37;41.73
11912;BME280;6016;41.928;25.556;2022-08-19T08:55:32;98652.97;;;32.46;40.99
11912;BME280;6016;41.928;25.556;2022-08-19T09:01:20;98636.53;;;32.51;40.61
11912;BME280;6016;41.928;25.556;2022-08-19T09:03:48;98653.19;;;32.68;40.42
11912;BME280;6016;41.928;25.556;2022-08-19T09:06:22;98629.31;;;32.74;39.73
11912;BME280;6016;41.928;25.556;2022-08-19T09:08:59;98648.28;;;32.84;39.29
11912;BME280;6016;41.928;25.556;2022-08-19T09:11:37;98610.59;;;32.67;39.52
11912;BME280;6016;41.928;25.556;2022-08-19T09:14:14;98644.69;;;33.03;38.81
11912;BME280;6016;41.928;25.556;2022-08-19T09:16:43;98636.31;;;33.14;38.41
11912;BME280;6016;41.928;25.556;2022-08-19T09:22:32;98625.91;;;33.30;38.23
11912;BME280;6016;41.928;25.556;2022-08-19T09:25:00;98632.28;;;33.39;38.74
11912;BME280;6016;41.928;25.556;2022-08-19T09:27:28;98633.53;;;33.47;38.83
11912;BME280;6016;41.928;25.556;2022-08-19T09:29:55;98638.28;;;33.55;38.69
11912;BME280;6016;41.928;25.556;2022-08-19T09:32:22;98635.66;;;33.64;38.27
11912;BME280;6016;41.928;25.556;2022-08-19T09:34:52;98635.53;;;33.69;38.26
11912;BME280;6016;41.928;25.556;2022-08-19T09:37:20;98641.44;;;33.76;38.36
11912;BME280;6016;41.928;25.556;2022-08-19T09:39:47;98643.41;;;33.85;37.26
11912;BME280;6016;41.928;25.556;2022-08-19T09:42:16;98621.22;;;34.00;37.42
11912;BME280;6016;41.928;25.556;2022-08-19T09:44:43;98598.41;;;34.05;36.76
11912;BME280;6016;41.928;25.556;2022-08-19T09:47:11;98594.94;;;34.13;36.53
11912;BME280;6016;41.928;25.556;2022-08-19T09:49:39;98617.59;;;34.28;36.23
11912;BME280;6016;41.928;25.556;2022-08-19T09:52:07;98622.00;;;34.37;34.88
11912;BME280;6016;41.928;25.556;2022-08-19T09:54:34;98618.81;;;34.58;35.62
11912;BME280;6016;41.928;25.556;2022-08-19T09:57:01;98596.81;;;34.49;34.49
11912;BME280;6016;41.928;25.556;2022-08-19T09:59:30;98609.06;;;34.75;34.73
11912;BME280;6016;41.928;25.556;2022-08-19T10:01:57;98610.88;;;34.79;34.63
11912;BME280;6016;41.928;25.556;2022-08-19T10:04:24;98601.22;;;34.82;35.39
11912;BME280;6016;41.928;25.556;2022-08-19T10:07:13;98593.59;;;34.70;34.88
11912;BME280;6016;41.928;25.556;2022-08-19T10:09:40;98584.19;;;34.62;34.13
11912;BME280;6016;41.928;25.556;2022-08-19T10:12:08;98579.66;;;34.58;34.58
11912;BME280;6016;41.928;25.556;2022-08-19T10:14:37;98598.78;;;34.81;34.22
11912;BME280;6016;41.928;25.556;2022-08-19T10:17:04;98592.03;;;34.78;34.05
11912;BME280;6016;41.928;25.556;2022-08-19T10:19:31;98606.44;;;34.92;34.02
11912;BME280;6016;41.928;25.556;2022-08-19T10:22:03;98574.13;;;34.81;33.29
11912;BME280;6016;41.928;25.556;2022-08-19T10:24:31;98589.16;;;34.92;33.17
11912;BME280;6016;41.928;25.556;2022-08-19T10:26:59;98589.53;;;34.99;33.63
11912;BME280;6016;41.928;25.556;2022-08-19T10:29:29;98535.19;;;34.61;33.73
11912;BME280;6016;41.928;25.556;2022-08-19T10:31:58;98600.03;;;34.97;34.75
11912;BME280;6016;41.928;25.556;2022-08-19T10:34:26;98595.03;;;34.99;33.96
11912;BME280;6016;41.928;25.556;2022-08-19T10:36:54;98564.66;;;34.87;33.71
11912;BME280;6016;41.928;25.556;2022-08-19T10:39:21;98588.91;;;35.02;34.13
11912;BME280;6016;41.928;25.556;2022-08-19T10:41:48;98579.59;;;35.03;33.47
11912;BME280;6016;41.928;25.556;2022-08-19T10:44:15;98585.72;;;35.09;33.28
11912;BME280;6016;41.928;25.556;2022-08-19T10:46:44;98567.59;;;34.99;33.17
11912;BME280;6016;41.928;25.556;2022-08-19T10:49:13;98577.22;;;35.19;32.74
11912;BME280;6016;41.928;25.556;2022-08-19T10:51:41;98576.91;;;35.21;33.20
11912;BME280;6016;41.928;25.556;2022-08-19T10:54:26;98548.78;;;35.06;33.78
11912;BME280;6016;41.928;25.556;2022-08-19T10:57:16;98569.00;;;35.19;33.55
11912;BME280;6016;41.928;25.556;2022-08-19T10:59:41;98569.50;;;35.30;33.43
11912;BME280;6016;41.928;25.556;2022-08-19T11:02:10;98550.47;;;35.25;32.53
11912;BME280;6016;41.928;25.556;2022-08-19T11:04:39;98554.19;;;35.29;32.92
11912;BME280;6016;41.928;25.556;2022-08-19T11:07:07;98554.66;;;35.31;32.76
11912;BME280;6016;41.928;25.556;2022-08-19T11:09:54;98521.72;;;35.14;32.78
11912;BME280;6016;41.928;25.556;2022-08-19T11:12:21;98551.16;;;35.40;32.49
11912;BME280;6016;41.928;25.556;2022-08-19T11:14:51;98533.19;;;35.25;32.62
11912;BME280;6016;41.928;25.556;2022-08-19T11:17:18;98564.03;;;35.30;32.92
11912;BME280;6016;41.928;25.556;2022-08-19T11:19:46;98558.06;;;35.37;32.79
11912;BME280;6016;41.928;25.556;2022-08-19T11:22:13;98550.19;;;35.35;32.37
11912;BME280;6016;41.928;25.556;2022-08-19T11:24:40;98539.03;;;35.41;32.39
11912;BME280;6016;41.928;25.556;2022-08-19T11:27:08;98540.00;;;35.36;32.61
11912;BME280;6016;41.928;25.556;2022-08-19T11:29:37;98546.78;;;35.39;32.29
11912;BME280;6016;41.928;25.556;2022-08-19T11:32:06;98541.78;;;35.41;32.34
11912;BME280;6016;41.928;25.556;2022-08-19T11:34:34;98520.78;;;35.27;32.13
11912;BME280;6016;41.928;25.556;2022-08-19T11:37:03;98516.91;;;35.37;32.44
11912;BME280;6016;41.928;25.556;2022-08-19T11:39:32;98532.63;;;35.54;31.56
11912;BME280;6016;41.928;25.556;2022-08-19T11:42:01;98530.72;;;35.55;31.91
11912;BME280;6016;41.928;25.556;2022-08-19T11:44:28;98526.34;;;35.54;32.03
11912;BME280;6016;41.928;25.556;2022-08-19T11:46:55;98508.56;;;35.51;31.92
11912;BME280;6016;41.928;25.556;2022-08-19T11:49:23;98478.88;;;35.44;32.18
11912;BME280;6016;41.928;25.556;2022-08-19T11:51:49;98495.84;;;35.55;32.22
11912;BME280;6016;41.928;25.556;2022-08-19T11:54:18;98477.56;;;35.42;31.90
11912;BME280;6016;41.928;25.556;2022-08-19T11:56:45;98519.22;;;35.53;31.97
11912;BME280;6016;41.928;25.556;2022-08-19T11:59:14;98519.06;;;35.49;32.45
11912;BME280;6016;41.928;25.556;2022-08-19T12:01:41;98510.38;;;35.56;32.48
11912;BME280;6016;41.928;25.556;2022-08-19T12:04:08;98510.53;;;35.68;31.82
11912;BME280;6016;41.928;25.556;2022-08-19T12:06:39;98294.84;;;34.35;32.42
11912;BME280;6016;41.928;25.556;2022-08-19T12:09:07;98505.38;;;35.84;32.32
11912;BME280;6016;41.928;25.556;2022-08-19T12:11:37;98455.50;;;35.56;31.69
11912;BME280;6016;41.928;25.556;2022-08-19T12:14:04;98348.13;;;34.96;31.74
11912;BME280;6016;41.928;25.556;2022-08-19T12:16:31;98495.84;;;35.90;31.64
11912;BME280;6016;41.928;25.556;2022-08-19T12:18:58;98492.41;;;36.02;31.70
11912;BME280;6016;41.928;25.556;2022-08-19T12:21:29;98490.34;;;35.99;30.81
11912;BME280;6016;41.928;25.556;2022-08-19T12:23:58;98462.72;;;35.87;31.56
11912;BME280;6016;41.928;25.556;2022-08-19T12:26:27;98491.31;;;35.95;31.98
11912;BME280;6016;41.928;25.556;2022-08-19T12:28:55;98494.72;;;35.83;31.44
11912;BME280;6016;41.928;25.556;2022-08-19T12:31:27;98501.00;;;35.74;32.19
11912;BME280;6016;41.928;25.556;2022-08-19T12:34:07;98470.34;;;35.55;32.27
11912;BME280;6016;41.928;25.556;2022-08-19T12:36:34;98376.97;;;34.84;32.41
11912;BME280;6016;41.928;25.556;2022-08-19T12:39:01;98493.38;;;35.45;32.77
11912;BME280;6016;41.928;25.556;2022-08-19T12:41:28;98478.88;;;35.44;32.09
11912;BME280;6016;41.928;25.556;2022-08-19T12:43:57;98447.69;;;35.31;32.36
11912;BME280;6016;41.928;25.556;2022-08-19T12:46:23;98491.81;;;35.61;31.81
11912;BME280;6016;41.928;25.556;2022-08-19T12:48:50;98467.25;;;35.39;31.97
11912;BME280;6016;41.928;25.556;2022-08-19T12:51:18;98486.47;;;35.56;33.13
11912;BME280;6016;41.928;25.556;2022-08-19T12:53:48;98486.00;;;35.63;31.73
11912;BME280;6016;41.928;25.556;2022-08-19T12:56:15;98478.75;;;35.76;31.54
11912;BME280;6016;41.928;25.556;2022-08-19T12:58:43;98482.78;;;35.87;32.59
11912;BME280;6016;41.928;25.556;2022-08-19T13:01:14;98458.41;;;35.77;32.03
11912;BME280;6016;41.928;25.556;2022-08-19T13:03:42;98481.94;;;35.96;30.83
11912;BME280;6016;41.928;25.556;2022-08-19T13:06:11;98469.53;;;35.89;30.57
11912;BME280;6016;41.928;25.556;2022-08-19T13:08:38;98465.81;;;35.85;31.04
11912;BME280;6016;41.928;25.556;2022-08-19T13:11:10;98464.34;;;35.97;31.14
11912;BME280;6016;41.928;25.556;2022-08-19T13:13:40;98471.59;;;36.01;31.27
11912;BME280;6016;41.928;25.556;2022-08-19T13:16:08;98442.09;;;35.81;31.39
11912;BME280;6016;41.928;25.556;2022-08-19T13:18:38;98476.63;;;36.08;30.40
11912;BME280;6016;41.928;25.556;2022-08-19T13:21:08;98464.66;;;36.04;30.96